Terminal Aerodrome Forecast
Issued by NWS

Home | Current Version | Previous Version | Text Only | Print | Product List | Glossary On
Versions: 1 2 3 4 5 6 7 8 9 10 11 12 13 14 15 16 17 18
394
FTUS45 KABQ 010529
TAFAEG
TAF
KAEG 010529Z 0106/0206 02008KT P6SM BKN050 BKN080
     FM010630 15012G20KT P6SM BKN035 BKN070
     FM010700 12020G30KT P6SM VCSH BKN035 OVC050
     FM011200 12025G35KT P6SM VCSH SCT025 OVC035
     FM011600 11020G30KT P6SM VCSH BKN025
     FM011900 13015G25KT P6SM VCSH BKN040 BKN070=

USA.gov is the U.S. government's official web portal to all federal, state and local government web resources and services.